Impacts METAR Board INFO
IDs:

KBOS - Boston/Logan Intl, MA, US

Updated at: 1902 UTC 16 Jan 2018
Potential Impact None Slight Moderate High
Time16/07Z 16/08Z 16/09Z 16/10Z 16/11Z 16/12Z 16/13Z 16/14Z 16/15Z 16/16Z 16/17Z 16/18Z 16/19Z
VIS10 10 10 10 10 10 10 10 10 10 10 10 10
CIG12 13 29 25 29 27 -- -- 38 35 250 90 90
CoverOVCOVCOVCOVCOVCOVCSCTFEWBKNOVCBKNBKNBKN
FltCatMVFRMVFRMVFRMVFRMVFRMVFRVFRVFRVFRVFRVFRVFRVFR
WX--------------------------
WDir35033033036010606000120170140140
WSpd7 5 6 5 3 4 5 0 0 4 3 4 4
WGst-- -- -- -- -- -- -- -- -- -- -- -- --
Raw hourly METARs
KBOS 160654Z 35007KT 10SM BKN012 OVC027 M06/M11 A3051 RMK AO2 SLP330 T10611111
KBOS 160754Z 33005KT 10SM OVC013 M06/M11 A3052 RMK AO2 SLP335 T10611106
KBOS 160854Z 33006KT 10SM OVC029 M06/M11 A3053 RMK AO2 SLP335 T10611106 53003
KBOS 160954Z 36005KT 10SM OVC025 M06/M11 A3052 RMK AO2 SLP335 T10611106
KBOS 161054Z 01003KT 10SM OVC029 M06/M10 A3053 RMK AO2 SLP338 T10611100
KBOS 161154Z 06004KT 10SM OVC027 M06/M09 A3053 RMK AO2 SLP337 T10561094 11056 21061 50002
KBOS 161254Z 06005KT 10SM FEW025 SCT120 M06/M09 A3052 RMK AO2 SLP335 T10561089
KBOS 161354Z 00000KT 10SM FEW120 FEW250 M04/M07 A3053 RMK AO2 SLP339 T10391067
KBOS 161454Z 00000KT 10SM BKN038 BKN250 M03/M07 A3054 RMK AO2 SLP341 T10281067 53003
KBOS 161554Z 12004KT 10SM OVC035 M03/M06 A3052 RMK AO2 SLP334 T10281061
KBOS 161654Z 17003KT 10SM FEW035 BKN250 M01/M06 A3049 RMK AO2 SLP325 T10111061
KBOS 161754Z 14004KT 10SM FEW028 BKN090 M01/M06 A3047 RMK AO2 SLP316 T10061061 11006 21061 56018
KBOS 161854Z 14004KT 10SM FEW028 BKN090 BKN200 00/M05 A3046 RMK AO2 SLP313 T00001050